Home > Products > Valid Products > MTR

000
SAUS44 KEWX 130358
MTRATT
METAR KATT 130351Z AUTO VRB06KT 10SM CLR 18/04 A3029 RMK AO2 SLP253
T01780044





000
SAUS44 KEWX 130358
MTRATT
METAR KATT 130351Z AUTO VRB06KT 10SM CLR 18/04 A3029 RMK AO2 SLP253
T01780044





000
SAUS44 KEWX 130252
MTRATT
METAR KATT 130251Z AUTO 02005KT 10SM CLR 19/06 A3028 RMK AO2 SLP252
T01890056 51022





000
SAUS44 KEWX 130252
MTRATT
METAR KATT 130251Z AUTO 02005KT 10SM CLR 19/06 A3028 RMK AO2 SLP252
T01890056 51022





000
SAUS44 KEWX 130158
MTRATT
METAR KATT 130151Z AUTO 02005KT 10SM CLR 20/07 A3027 RMK AO2 SLP248
T02000067





000
SAUS44 KEWX 130158
MTRATT
METAR KATT 130151Z AUTO 02005KT 10SM CLR 20/07 A3027 RMK AO2 SLP248
T02000067





000
SAUS44 KEWX 130059 COR
MTRATT
METAR KATT 130051Z AUTO VRB03KT 10SM CLR 21/06 A3024 RMK AO2 SLP236
T02110056





000
SAUS44 KEWX 130059 COR
MTRATT
METAR KATT 130051Z AUTO VRB03KT 10SM CLR 21/06 A3024 RMK AO2 SLP236
T02110056





000
SAUS44 KEWX 122354
MTRATT
METAR KATT 122351Z AUTO VRB03KT 10SM CLR 23/05 A3022 RMK AO2 SLP228
T02280050 10261 20228 53007





000
SAUS44 KEWX 122354
MTRATT
METAR KATT 122351Z AUTO VRB03KT 10SM CLR 23/05 A3022 RMK AO2 SLP228
T02280050 10261 20228 53007





000
SAUS44 KEWX 122254
MTRATT
METAR KATT 122251Z AUTO VRB03KT 10SM CLR 25/05 A3020 RMK AO2 SLP222
T02500050





000
SAUS44 KEWX 122254
MTRATT
METAR KATT 122251Z AUTO VRB03KT 10SM CLR 25/05 A3020 RMK AO2 SLP222
T02500050





000
SAUS44 KEWX 122154
MTRATT
METAR KATT 122151Z AUTO 03006KT 10SM CLR 26/05 A3019 RMK AO2 SLP218
T02610050





000
SAUS44 KEWX 122058
MTRATT
METAR KATT 122051Z AUTO VRB04KT 10SM CLR 26/06 A3020 RMK AO2 SLP219
T02610056 56022





000
SAUS44 KEWX 121958
MTRATT
METAR KATT 121951Z AUTO 35005KT 10SM CLR 25/06 A3021 RMK AO2 SLP223
T02500056





000
SAUS44 KEWX 121858
MTRATT
METAR KATT 121851Z AUTO 36005KT 10SM CLR 24/06 A3024 RMK AO2 SLP234
T02390056





000
SAUS44 KEWX 121758
MTRATT
METAR KATT 121751Z AUTO 02008KT 10SM CLR 23/05 A3026 RMK AO2 SLP241
T02330050 10233 20083 51008





000
SAUS44 KEWX 121658
MTRATT
METAR KATT 121651Z AUTO 00000KT 10SM CLR 21/05 A3026 RMK AO2 SLP241
T02110050





000
SAUS44 KEWX 121658
MTRATT
METAR KATT 121651Z AUTO 00000KT 10SM CLR 21/05 A3026 RMK AO2 SLP241
T02110050





000
SAUS44 KEWX 121552
MTRATT
METAR KATT 121551Z AUTO 28003KT 10SM CLR 17/07 A3025 RMK AO2 SLP239
T01720072





000
SAUS44 KEWX 121552
MTRATT
METAR KATT 121551Z AUTO 28003KT 10SM CLR 17/07 A3025 RMK AO2 SLP239
T01720072





000
SAUS44 KEWX 121458
MTRATT
METAR KATT 121451Z AUTO 00000KT 10SM CLR 12/08 A3024 RMK AO2 SLP236
T01220083 51019





000
SAUS44 KEWX 121352
MTRATT
METAR KATT 121351Z AUTO 00000KT 10SM CLR 09/08 A3022 RMK AO2 SLP231
T00940078





000
SAUS44 KEWX 121258
MTRATT
METAR KATT 121251Z AUTO 00000KT 10SM CLR 09/08 A3021 RMK AO2 SLP225
T00940078





000
SAUS44 KEWX 121152
MTRATT
METAR KATT 121151Z AUTO 00000KT 10SM CLR 10/08 A3018 RMK AO2 SLP216
T01000078 10150 20100 53010





000
SAUS44 KEWX 121152
MTRATT
METAR KATT 121151Z AUTO 00000KT 10SM CLR 10/08 A3018 RMK AO2 SLP216
T01000078 10150 20100 53010





000
SAUS44 KEWX 121052
MTRATT
METAR KATT 121051Z AUTO 00000KT 10SM CLR 11/08 A3016 RMK AO2 SLP209
T01060083





000
SAUS44 KEWX 120953
MTRATT
METAR KATT 120951Z AUTO 00000KT 10SM CLR 12/08 A3015 RMK AO2 SLP203
T01170083





000
SAUS44 KEWX 120853
MTRATT
METAR KATT 120851Z AUTO 00000KT 10SM CLR 12/08 A3015 RMK AO2 SLP203
T01220083 50001





000
SAUS44 KEWX 120754
MTRATT
METAR KATT 120751Z AUTO 00000KT 10SM CLR 14/09 A3016 RMK AO2 SLP203
T01390089





000
SAUS44 KEWX 120652
MTRATT
METAR KATT 120651Z AUTO 19004KT 10SM CLR 14/08 A3015 RMK AO2 SLP201
T01440083





000
SAUS44 KEWX 120652
MTRATT
METAR KATT 120651Z AUTO 19004KT 10SM CLR 14/08 A3015 RMK AO2 SLP201
T01440083





000
SAUS44 KEWX 120554
MTRATT
METAR KATT 120551Z AUTO VRB03KT 10SM CLR 15/08 A3015 RMK AO2 SLP201
T01500083 10244 20150 402830111 50006





000
SAUS44 KEWX 120554
MTRATT
METAR KATT 120551Z AUTO VRB03KT 10SM CLR 15/08 A3015 RMK AO2 SLP201
T01500083 10244 20150 402830111 50006





000
SAUS44 KEWX 120453
MTRATT
METAR KATT 120451Z AUTO 19004KT 10SM CLR 17/07 A3015 RMK AO2 SLP203
T01670072





000
SAUS44 KEWX 120354
MTRATT
METAR KATT 120351Z AUTO VRB06KT 10SM CLR 18/04 A3014 RMK AO2 SLP201
T01830044





000
SAUS44 KEWX 120354
MTRATT
METAR KATT 120351Z AUTO VRB06KT 10SM CLR 18/04 A3014 RMK AO2 SLP201
T01830044





000
SAUS44 KEWX 120257 COR
MTRATT
METAR KATT 120251Z AUTO 00000KT 10SM CLR 19/02 A3013 RMK AO2 SLP197
T01940022 53012





000
SAUS44 KEWX 120257 COR
MTRATT
METAR KATT 120251Z AUTO 00000KT 10SM CLR 19/02 A3013 RMK AO2 SLP197
T01940022 53012





000
SAUS44 KEWX 120256 COR
MTRATT
METAR KATT 120251Z AUTO 00000KT 10SM CLR 19/02 A3013 RMK AO2 SLP197
T01940022 53012





000
SAUS44 KEWX 120256 COR
MTRATT
METAR KATT 120251Z AUTO 00000KT 10SM CLR 19/02 A3013 RMK AO2 SLP197
T01940022 53012





000
SAUS44 KEWX 120255 COR
MTRATT
METAR KATT 120251Z AUTO 00000KT 10SM CLR 19/02 A3013 RMK AO2 SLP197
T01940022 53012





000
SAUS44 KEWX 120254
MTRATT
METAR KATT 120251Z AUTO 00000KT 10SM CLR 19/02 A3013 RMK AO2 SLP197
T01940022 53012





000
SAUS44 KEWX 120158
MTRATT
METAR KATT 120151Z AUTO 18003KT 10SM CLR 19/03 A3012 RMK AO2 SLP195
T01940028





000
SAUS44 KEWX 120158
MTRATT
METAR KATT 120151Z AUTO 18003KT 10SM CLR 19/03 A3012 RMK AO2 SLP195
T01940028





000
SAUS44 KEWX 120052
MTRATT
METAR KATT 120051Z AUTO 17004KT 10SM CLR 22/02 A3010 RMK AO2 SLP190
T02170022





000
SAUS44 KEWX 120052
MTRATT
METAR KATT 120051Z AUTO 17004KT 10SM CLR 22/02 A3010 RMK AO2 SLP190
T02170022





000
SAUS44 KEWX 112358
MTRATT
METAR KATT 112351Z AUTO 19006KT 10SM CLR 24/02 A3009 RMK AO2 SLP184
T02440017 10283 20244 53009





000
SAUS44 KEWX 112358
MTRATT
METAR KATT 112351Z AUTO 19006KT 10SM CLR 24/02 A3009 RMK AO2 SLP184
T02440017 10283 20244 53009





000
SAUS44 KEWX 112254
MTRATT
METAR KATT 112251Z AUTO VRB06KT 10SM CLR 26/02 A3008 RMK AO2 SLP179
T02610022





000
SAUS44 KEWX 112154
MTRATT
METAR KATT 112151Z AUTO VRB05KT 10SM CLR 28/03 A3007 RMK AO2 SLP173
T02780028





000
SAUS44 KEWX 112058
MTRATT
METAR KATT 112051Z AUTO VRB06KT 10SM CLR 28/04 A3007 RMK AO2 SLP173
T02830044 56030





000
SAUS44 KEWX 111952
MTRATT
METAR KATT 111951Z AUTO 22008KT 10SM CLR 28/03 A3008 RMK AO2 SLP179
T02780033





000
SAUS44 KEWX 111852
MTRATT
METAR KATT 111851Z AUTO 22008KT 10SM CLR 27/04 A3012 RMK AO2 SLP191
T02670039





000
SAUS44 KEWX 111752
MTRATT
METAR KATT 111751Z AUTO 21010G14KT 10SM CLR 24/04 A3016 RMK AO2
SLP206 T02440039 10244 20111 58004





000
SAUS44 KEWX 111752
MTRATT
METAR KATT 111751Z AUTO 21010G14KT 10SM CLR 24/04 A3016 RMK AO2
SLP206 T02440039 10244 20111 58004





000
SAUS44 KEWX 111659 COR
MTRATT
METAR KATT 111651Z AUTO 20009G16KT 10SM CLR 22/04 A3017 RMK AO2
SLP212 T02220039





000
SAUS44 KEWX 111659 COR
MTRATT
METAR KATT 111651Z AUTO 20009G16KT 10SM CLR 22/04 A3017 RMK AO2
SLP212 T02220039





000
SAUS44 KEWX 111552
MTRATT
METAR KATT 111551Z AUTO VRB05KT 10SM CLR 20/04 A3018 RMK AO2 SLP215
T02000039





000
SAUS44 KEWX 111453
MTRATT
METAR KATT 111451Z AUTO VRB03KT 10SM CLR 16/03 A3017 RMK AO2 SLP213
T01610028 53009





000
SAUS44 KEWX 111453
MTRATT
METAR KATT 111451Z AUTO VRB03KT 10SM CLR 16/03 A3017 RMK AO2 SLP213
T01610028 53009





000
SAUS44 KEWX 111352
MTRATT
METAR KATT 111351Z AUTO VRB03KT 10SM CLR 12/01 A3016 RMK AO2 SLP210
T01220006





000
SAUS44 KEWX 111252
MTRATT
METAR KATT 111251Z AUTO 00000KT 10SM CLR 12/M01 A3015 RMK AO2 SLP207
T01171011





000
SAUS44 KEWX 111252
MTRATT
METAR KATT 111251Z AUTO 00000KT 10SM CLR 12/M01 A3015 RMK AO2 SLP207
T01171011





000
SAUS44 KEWX 111154
MTRATT
METAR KATT 111151Z AUTO 23004KT 10SM CLR 13/M01 A3014 RMK AO2 SLP203
T01331011 10150 20117 56002





000
SAUS44 KEWX 111154
MTRATT
METAR KATT 111151Z AUTO 23004KT 10SM CLR 13/M01 A3014 RMK AO2 SLP203
T01331011 10150 20117 56002





000
SAUS44 KEWX 111058
MTRATT
METAR KATT 111051Z AUTO 25004KT 10SM CLR 14/M01 A3014 RMK AO2 SLP201
T01441006





000
SAUS44 KEWX 111058
MTRATT
METAR KATT 111051Z AUTO 25004KT 10SM CLR 14/M01 A3014 RMK AO2 SLP201
T01441006





000
SAUS44 KEWX 110952
MTRATT
METAR KATT 110951Z AUTO 00000KT 10SM CLR 14/01 A3015 RMK AO2 SLP203
T01390011





000
SAUS44 KEWX 110852
MTRATT
METAR KATT 110851Z AUTO VRB04KT 10SM CLR 13/02 A3015 RMK AO2 SLP204
T01330022 56010





000
SAUS44 KEWX 110852
MTRATT
METAR KATT 110851Z AUTO VRB04KT 10SM CLR 13/02 A3015 RMK AO2 SLP204
T01330022 56010





000
SAUS44 KEWX 110752
MTRATT
METAR KATT 110751Z AUTO 00000KT 10SM CLR 12/02 A3016 RMK AO2 SLP208
T01220017





000
SAUS44 KEWX 110652
MTRATT
METAR KATT 110651Z AUTO 00000KT 10SM CLR 13/01 A3017 RMK AO2 SLP211
T01330011





000
SAUS44 KEWX 110652
MTRATT
METAR KATT 110651Z AUTO 00000KT 10SM CLR 13/01 A3017 RMK AO2 SLP211
T01330011





000
SAUS44 KEWX 110554
MTRATT
METAR KATT 110551Z AUTO 20004KT 10SM CLR 14/01 A3018 RMK AO2 SLP216
T01390006 10211 20133 402330033 58006





000
SAUS44 KEWX 110554
MTRATT
METAR KATT 110551Z AUTO 20004KT 10SM CLR 14/01 A3018 RMK AO2 SLP216
T01390006 10211 20133 402330033 58006





000
SAUS44 KEWX 110500 COR
MTRATT
METAR KATT 110451Z AUTO 16007KT 10SM CLR 13/00 A3020 RMK AO2 SLP223
T01330000





000
SAUS44 KEWX 110500 COR
MTRATT
METAR KATT 110451Z AUTO 16007KT 10SM CLR 13/00 A3020 RMK AO2 SLP223
T01330000





000
SAUS44 KEWX 110354
MTRATT
METAR KATT 110351Z AUTO 21004KT 10SM CLR 15/01 A3019 RMK AO2 SLP223
T01500006





000
SAUS44 KEWX 110254
MTRATT
METAR KATT 110251Z AUTO 22004KT 10SM CLR 16/01 A3020 RMK AO2 SLP225
T01560011 56002





000
SAUS44 KEWX 110254
MTRATT
METAR KATT 110251Z AUTO 22004KT 10SM CLR 16/01 A3020 RMK AO2 SLP225
T01560011 56002





000
SAUS44 KEWX 110152
MTRATT
METAR KATT 110151Z AUTO 20003KT 10SM CLR 17/01 A3020 RMK AO2 SLP227
T01670006





000
SAUS44 KEWX 110058
MTRATT
METAR KATT 110051Z AUTO 19004KT 10SM CLR 19/01 A3020 RMK AO2 SLP226
T01890011





000
SAUS44 KEWX 110058
MTRATT
METAR KATT 110051Z AUTO 19004KT 10SM CLR 19/01 A3020 RMK AO2 SLP226
T01890011





000
SAUS44 KEWX 102354
MTRATT
METAR KATT 102351Z AUTO VRB04KT 10SM CLR 21/02 A3020 RMK AO2 SLP228
T02110022 10233 20183 56015





000
SAUS44 KEWX 102354
MTRATT
METAR KATT 102351Z AUTO VRB04KT 10SM CLR 21/02 A3020 RMK AO2 SLP228
T02110022 10233 20183 56015





000
SAUS44 KEWX 102252
MTRATT
METAR KATT 102251Z AUTO 17004KT 10SM CLR 23/02 A3021 RMK AO2 SLP229
T02280022





000
SAUS44 KEWX 102252
MTRATT
METAR KATT 102251Z AUTO 17004KT 10SM CLR 23/02 A3021 RMK AO2 SLP229
T02280022





000
SAUS44 KEWX 102152
MTRATT
METAR KATT 102151Z AUTO VRB05KT 10SM CLR 23/02 A3022 RMK AO2 SLP232
T02280022





000
SAUS44 KEWX 101954
MTRATT
METAR KATT 101951Z AUTO VRB05KT 10SM CLR 22/01 A3029 RMK AO2 SLP253
T02170011





000
SAUS44 KEWX 101854
MTRATT
METAR KATT 101851Z AUTO VRB03KT 10SM CLR 20/01 A3033 RMK AO2 SLP268
T02000011





000
SAUS44 KEWX 101854
MTRATT
METAR KATT 101851Z AUTO VRB03KT 10SM CLR 20/01 A3033 RMK AO2 SLP268
T02000011





000
SAUS44 KEWX 101759
MTRATT
METAR KATT 101751Z AUTO VRB03KT 10SM CLR 18/01 A3037 RMK AO2 SLP281
T01830006 10183 20033 58012





000
SAUS44 KEWX 101759
MTRATT
METAR KATT 101751Z AUTO VRB03KT 10SM CLR 18/01 A3037 RMK AO2 SLP281
T01830006 10183 20033 58012





000
SAUS44 KEWX 101659 COR
MTRATT
METAR KATT 101651Z AUTO 19005KT 10SM CLR 16/M01 A3040 RMK AO2 SLP292
T01561006





000
SAUS44 KEWX 101659 COR
MTRATT
METAR KATT 101651Z AUTO 19005KT 10SM CLR 16/M01 A3040 RMK AO2 SLP292
T01561006





000
SAUS44 KEWX 101558
MTRATT
METAR KATT 101551Z AUTO 22003KT 10SM CLR 12/01 A3041 RMK AO2 SLP298
T01220006





000
SAUS44 KEWX 101454
MTRATT
METAR KATT 101451Z AUTO 00000KT 10SM CLR 09/02 A3040 RMK AO2 SLP296
T00940022 51013





000
SAUS44 KEWX 101454
MTRATT
METAR KATT 101451Z AUTO 00000KT 10SM CLR 09/02 A3040 RMK AO2 SLP296
T00940022 51013





000
SAUS44 KEWX 101358
MTRATT
METAR KATT 101351Z AUTO 00000KT 10SM CLR 03/00 A3039 RMK AO2 SLP294
T00330000





000
SAUS44 KEWX 101258 COR
MTRATT
METAR KATT 101251Z AUTO 00000KT 10SM CLR 05/M01 A3038 RMK AO2 SLP287
T00501011





000
SAUS44 KEWX 101258 COR
MTRATT
METAR KATT 101251Z AUTO 00000KT 10SM CLR 05/M01 A3038 RMK AO2 SLP287
T00501011





000
SAUS44 KEWX 101254 COR
MTRATT
METAR KATT 101251Z AUTO 00000KT 10SM CLR 05/M01 A3038 RMK AO2 SLP287
T00501011





000
SAUS44 KEWX 101253 COR
MTRATT
METAR KATT 101251Z AUTO 00000KT 10SM CLR 05/M01 A3038 RMK AO2 SLP287
T00501011





000
SAUS44 KEWX 101253
MTRATT
METAR KATT 101251Z AUTO 00000KT 10SM CLR 05/M01 A3038 RMK AO2 SLP287
T00501011





000
SAUS44 KEWX 101153
MTRATT
METAR KATT 101151Z AUTO 00000KT 10SM CLR 04/M01 A3036 RMK AO2 SLP282
T00441006 10106 20039 53006





000
SAUS44 KEWX 101153
MTRATT
METAR KATT 101151Z AUTO 00000KT 10SM CLR 04/M01 A3036 RMK AO2 SLP282
T00441006 10106 20039 53006





000
SAUS44 KEWX 101058
MTRATT
METAR KATT 101051Z AUTO 00000KT 10SM CLR 06/M01 A3035 RMK AO2 SLP276
T00561006





000
SAUS44 KEWX 101058
MTRATT
METAR KATT 101051Z AUTO 00000KT 10SM CLR 06/M01 A3035 RMK AO2 SLP276
T00561006





000
SAUS44 KEWX 100952
MTRATT
METAR KATT 100951Z AUTO 04003KT 10SM CLR 07/M01 A3036 RMK AO2 SLP277
T00671006





000
SAUS44 KEWX 100853
MTRATT
METAR KATT 100851Z AUTO 03003KT 10SM CLR 08/M01 A3034 RMK AO2 SLP273
T00831006 50002





000
SAUS44 KEWX 100853
MTRATT
METAR KATT 100851Z AUTO 03003KT 10SM CLR 08/M01 A3034 RMK AO2 SLP273
T00831006 50002





000
SAUS44 KEWX 100758
MTRATT
METAR KATT 100751Z AUTO 00000KT 10SM CLR 08/00 A3035 RMK AO2 SLP274
T00830000





000
SAUS44 KEWX 100652
MTRATT
METAR KATT 100651Z AUTO 00000KT 10SM CLR 09/M01 A3034 RMK AO2 SLP272
T00891006





000
SAUS44 KEWX 100652
MTRATT
METAR KATT 100651Z AUTO 00000KT 10SM CLR 09/M01 A3034 RMK AO2 SLP272
T00891006





000
SAUS44 KEWX 100553
MTRATT
METAR KATT 100551Z AUTO 00000KT 10SM CLR 11/M01 A3034 RMK AO2 SLP272
T01061006 10206 20100 402330039 51019





000
SAUS44 KEWX 100553
MTRATT
METAR KATT 100551Z AUTO 00000KT 10SM CLR 11/M01 A3034 RMK AO2 SLP272
T01061006 10206 20100 402330039 51019





000
SAUS44 KEWX 100452
MTRATT
METAR KATT 100451Z AUTO 04004KT 10SM CLR 13/M01 A3032 RMK AO2 SLP267
T01281006





000
SAUS44 KEWX 100452
MTRATT
METAR KATT 100451Z AUTO 04004KT 10SM CLR 13/M01 A3032 RMK AO2 SLP267
T01281006





    US Dept of Commerce
    National Oceanic and Atmospheric Administration
    National Weather Service
    1325 East West Highway
    Silver Spring, MD 20910
    Page Author: NWS Internet Services Team
Disclaimer
Information Quality
Credits
Glossary
Privacy Policy
Freedom of Information Act (FOIA)
About Us
Career Opportunities